createdAt,value
2022-11-16T00:00:10.844Z,7.52
2022-11-16T00:02:58.554Z,7.52
2022-11-16T00:05:28.548Z,7.35
2022-11-16T00:07:56.313Z,7.51
2022-11-16T00:10:23.918Z,7.57
2022-11-16T00:12:51.031Z,7.70
2022-11-16T00:15:18.599Z,7.71
2022-11-16T00:17:45.808Z,7.62
2022-11-16T00:20:13.589Z,7.67
2022-11-16T00:22:41.161Z,7.65
2022-11-16T00:25:08.751Z,7.71
2022-11-16T00:27:35.987Z,7.69
2022-11-16T00:30:04.507Z,7.72
2022-11-16T00:32:33.662Z,7.67
2022-11-16T00:35:01.484Z,7.66
2022-11-16T00:37:28.666Z,7.65
2022-11-16T00:39:56.606Z,7.64
2022-11-16T00:42:24.083Z,7.60
2022-11-16T00:44:51.862Z,7.68
2022-11-16T00:47:20.445Z,7.71
2022-11-16T00:49:48.132Z,7.66
2022-11-16T00:52:15.330Z,7.74
2022-11-16T00:54:42.819Z,7.76
2022-11-16T00:57:10.356Z,7.81
2022-11-16T00:59:38.113Z,7.76
2022-11-16T01:02:05.350Z,7.72
2022-11-16T01:04:34.303Z,7.65
2022-11-16T01:07:01.494Z,7.58
2022-11-16T01:09:29.414Z,7.42
2022-11-16T01:12:12.797Z,7.40
2022-11-16T01:14:45.606Z,7.34
2022-11-16T01:17:14.344Z,7.33
2022-11-16T01:19:41.951Z,7.34
2022-11-16T01:22:09.204Z,7.26
2022-11-16T01:24:36.956Z,7.29
2022-11-16T01:27:04.461Z,7.22
2022-11-16T01:29:35.406Z,7.21
2022-11-16T01:32:02.646Z,7.18
2022-11-16T01:34:30.223Z,7.12
2022-11-16T01:37:04.740Z,7.10
2022-11-16T01:39:35.929Z,7.09
2022-11-16T01:42:04.244Z,7.04
2022-11-16T01:44:32.247Z,7.03
2022-11-16T01:47:12.693Z,6.99
2022-11-16T01:49:45.056Z,7.04
2022-11-16T01:52:19.255Z,6.91
2022-11-16T01:55:06.315Z,6.95
2022-11-16T01:58:00.834Z,6.91
2022-11-16T02:00:34.346Z,6.98
2022-11-16T02:03:23.101Z,6.97
2022-11-16T02:06:26.430Z,7.03
2022-11-16T02:09:42.021Z,7.12
2022-11-16T02:12:10.059Z,7.20
2022-11-16T02:15:14.221Z,7.06
2022-11-16T02:17:58.923Z,7.16
2022-11-16T02:20:50.434Z,7.01
2022-11-16T02:23:40.104Z,6.98
2022-11-16T02:26:47.786Z,6.98
2022-11-16T02:29:27.983Z,6.99
2022-11-16T02:32:03.569Z,6.94
2022-11-16T02:35:14.606Z,6.71
2022-11-16T02:37:50.347Z,6.72
2022-11-16T02:40:22.688Z,6.63
2022-11-16T02:43:04.329Z,6.53
2022-11-16T02:45:39.736Z,6.21
2022-11-16T02:48:15.213Z,6.26
2022-11-16T02:50:44.111Z,6.28
2022-11-16T02:53:11.295Z,6.33
2022-11-16T02:55:40.085Z,6.32
2022-11-16T02:58:12.568Z,6.27
2022-11-16T03:01:08.239Z,6.24
2022-11-16T03:03:54.497Z,6.20
2022-11-16T03:06:24.522Z,6.29
2022-11-16T03:09:08.793Z,6.35
2022-11-16T03:11:59.431Z,6.37
2022-11-16T03:14:52.086Z,6.39
2022-11-16T03:17:32.015Z,6.46
2022-11-16T03:20:20.786Z,6.43
2022-11-16T03:23:10.280Z,6.54
2022-11-16T03:25:51.927Z,6.56
2022-11-16T03:28:25.598Z,6.61
2022-11-16T03:31:06.069Z,6.64
2022-11-16T03:33:57.657Z,6.67
2022-11-16T03:36:30.105Z,6.71
2022-11-16T03:39:04.512Z,6.78
2022-11-16T03:41:37.668Z,6.74
2022-11-16T03:44:06.932Z,6.78
2022-11-16T03:46:34.874Z,6.74
2022-11-16T03:49:02.966Z,6.68
2022-11-16T03:51:36.073Z,6.78
2022-11-16T03:54:05.502Z,6.90
2022-11-16T03:56:34.160Z,6.94
2022-11-16T03:59:03.196Z,7.08
2022-11-16T04:01:31.817Z,7.18
2022-11-16T04:04:37.087Z,7.27
2022-11-16T04:07:25.454Z,7.43
2022-11-16T04:10:13.924Z,7.52
2022-11-16T04:13:03.339Z,7.66
2022-11-16T04:15:49.705Z,7.80
2022-11-16T04:18:35.845Z,7.97
2022-11-16T04:21:24.066Z,7.88
2022-11-16T04:24:10.987Z,7.83
2022-11-16T04:26:59.845Z,7.49
2022-11-16T04:29:27.626Z,7.14
2022-11-16T04:32:14.420Z,7.21
2022-11-16T04:35:00.411Z,7.11
2022-11-16T04:37:47.819Z,7.19
2022-11-16T04:40:19.642Z,7.22
2022-11-16T04:42:56.538Z,7.17
2022-11-16T04:45:43.452Z,7.08
2022-11-16T04:48:12.853Z,7.10
2022-11-16T04:50:41.980Z,7.09
2022-11-16T04:53:10.254Z,7.09
2022-11-16T04:55:44.869Z,7.10
2022-11-16T04:58:14.115Z,7.10
2022-11-16T05:00:41.655Z,7.12
2022-11-16T05:03:10.592Z,7.23
2022-11-16T05:05:39.202Z,7.33
2022-11-16T05:08:09.113Z,7.35
2022-11-16T05:10:36.868Z,7.45
2022-11-16T05:13:04.528Z,7.44
2022-11-16T05:15:33.236Z,7.46
2022-11-16T05:18:01.397Z,7.50
2022-11-16T05:20:48.267Z,7.56
2022-11-16T05:23:34.314Z,7.47
2022-11-16T05:26:08.779Z,7.60
2022-11-16T05:28:37.638Z,7.69
2022-11-16T05:31:05.071Z,7.73
2022-11-16T05:33:33.093Z,7.82
2022-11-16T05:36:01.359Z,7.89
2022-11-16T05:38:30.493Z,8.09
2022-11-16T05:41:00.422Z,8.26
2022-11-16T05:43:29.930Z,8.35
2022-11-16T05:46:13.725Z,8.37
2022-11-16T05:48:43.703Z,8.50
2022-11-16T05:51:14.235Z,8.53
2022-11-16T05:53:44.556Z,8.54
2022-11-16T05:56:17.552Z,8.61
2022-11-16T05:58:46.576Z,8.55
2022-11-16T06:01:14.166Z,8.55
2022-11-16T06:03:45.901Z,8.63
2022-11-16T06:06:14.436Z,8.73
2022-11-16T06:08:46.795Z,8.86
2022-11-16T06:11:20.079Z,9.20
2022-11-16T06:13:47.965Z,9.53
2022-11-16T06:16:16.078Z,9.93
2022-11-16T06:18:46.040Z,10.25
2022-11-16T06:21:17.839Z,10.54
2022-11-16T06:23:46.814Z,10.76
2022-11-16T06:26:15.312Z,10.97
2022-11-16T06:28:42.951Z,11.19
2022-11-16T06:31:13.331Z,11.35
2022-11-16T06:33:43.119Z,11.60
2022-11-16T06:36:21.582Z,11.67
2022-11-16T06:38:51.648Z,11.82
2022-11-16T06:41:21.630Z,11.89
2022-11-16T06:43:51.234Z,11.77
2022-11-16T06:46:21.727Z,11.66
2022-11-16T06:48:49.447Z,11.69
2022-11-16T06:51:18.094Z,11.69
2022-11-16T06:53:46.716Z,11.52
2022-11-16T06:56:16.243Z,11.17
2022-11-16T06:58:53.230Z,11.07
2022-11-16T07:01:21.314Z,11.12
2022-11-16T07:03:50.177Z,11.12
2022-11-16T07:06:17.468Z,11.64
2022-11-16T07:08:46.761Z,11.67
2022-11-16T07:11:18.067Z,11.63
2022-11-16T07:13:46.200Z,11.69
2022-11-16T07:16:13.857Z,11.89
2022-11-16T07:18:47.023Z,12.09
2022-11-16T07:21:17.739Z,12.28
2022-11-16T07:23:46.399Z,12.43
2022-11-16T07:26:18.778Z,12.51
2022-11-16T07:29:02.620Z,12.79
2022-11-16T07:31:31.029Z,12.84
2022-11-16T07:34:34.018Z,12.90
2022-11-16T07:37:06.718Z,13.01
2022-11-16T07:39:34.397Z,13.29
2022-11-16T07:42:03.719Z,13.42
2022-11-16T07:45:00.300Z,13.56
2022-11-16T07:47:29.417Z,13.72
2022-11-16T07:49:58.503Z,13.81
2022-11-16T07:52:28.235Z,13.87
2022-11-16T07:55:02.865Z,13.83
2022-11-16T07:57:31.001Z,13.91
2022-11-16T08:00:02.028Z,14.02
2022-11-16T08:02:40.841Z,13.77
2022-11-16T08:05:12.403Z,13.80
2022-11-16T08:07:40.451Z,13.66
2022-11-16T08:10:08.787Z,13.59
2022-11-16T08:12:36.196Z,13.61
2022-11-16T08:15:05.418Z,13.15
2022-11-16T08:17:33.531Z,12.61
2022-11-16T08:20:07.760Z,12.80
2022-11-16T08:22:36.803Z,12.77
2022-11-16T08:25:05.752Z,12.81
2022-11-16T08:27:33.539Z,12.80
2022-11-16T08:30:04.666Z,12.97
2022-11-16T08:32:32.739Z,13.10
2022-11-16T08:35:00.377Z,13.00
2022-11-16T08:37:28.303Z,13.03
2022-11-16T08:39:56.298Z,13.29
2022-11-16T08:42:25.080Z,13.66
2022-11-16T08:44:54.221Z,13.90
2022-11-16T08:47:21.627Z,14.20
2022-11-16T08:49:54.628Z,14.15
2022-11-16T08:52:24.432Z,14.35
2022-11-16T08:54:54.253Z,14.42
2022-11-16T08:57:23.777Z,14.49
2022-11-16T08:59:57.226Z,14.55
2022-11-16T09:02:27.557Z,14.49
2022-11-16T09:04:55.802Z,14.43
2022-11-16T09:07:25.532Z,14.48
2022-11-16T09:09:53.258Z,14.56
2022-11-16T09:12:20.648Z,14.46
2022-11-16T09:14:48.505Z,14.36
2022-11-16T09:17:22.925Z,14.51
2022-11-16T09:19:51.196Z,14.59
2022-11-16T09:22:18.633Z,14.65
2022-11-16T09:24:47.702Z,14.75
2022-11-16T09:27:15.197Z,14.86
2022-11-16T09:29:42.944Z,15.02
2022-11-16T09:32:11.704Z,15.33
2022-11-16T09:34:39.357Z,15.52
2022-11-16T09:37:08.203Z,15.65
2022-11-16T09:42:24.270Z,15.63
2022-11-16T09:45:01.589Z,15.70
2022-11-16T09:47:56.470Z,15.75
2022-11-16T09:53:29.727Z,15.88
2022-11-16T09:56:04.266Z,16.11
2022-11-16T09:58:40.454Z,16.30
2022-11-16T10:01:21.559Z,16.48
2022-11-16T10:03:53.956Z,16.65
2022-11-16T10:06:27.650Z,16.72
2022-11-16T10:08:58.656Z,16.62
2022-11-16T10:12:03.410Z,16.75
2022-11-16T10:15:04.924Z,16.76
2022-11-16T10:17:49.339Z,16.83
2022-11-16T10:20:31.054Z,16.67
2022-11-16T10:23:20.811Z,16.65
2022-11-16T10:25:54.456Z,16.84
2022-11-16T10:28:34.338Z,17.21
2022-11-16T10:31:04.561Z,17.17
2022-11-16T10:33:37.212Z,17.55
2022-11-16T10:36:12.008Z,17.71
2022-11-16T10:38:42.579Z,18.22
2022-11-16T10:41:26.218Z,18.57
2022-11-16T10:43:58.628Z,18.03
2022-11-16T10:46:27.381Z,18.26
2022-11-16T10:49:23.775Z,18.54
2022-11-16T10:51:51.187Z,18.21
2022-11-16T10:54:18.935Z,17.92
2022-11-16T10:56:56.044Z,17.85
2022-11-16T10:59:42.395Z,18.25
2022-11-16T11:02:25.578Z,18.81
2022-11-16T11:05:25.162Z,19.44
2022-11-16T11:08:01.937Z,19.66
2022-11-16T11:10:35.144Z,18.73
2022-11-16T11:13:25.388Z,18.96
2022-11-16T11:16:12.671Z,18.73
2022-11-16T11:18:40.188Z,18.49
2022-11-16T11:21:18.789Z,18.33
2022-11-16T11:23:53.420Z,18.05
2022-11-16T11:26:38.472Z,17.69
2022-11-16T11:29:32.010Z,17.59
2022-11-16T11:32:08.696Z,17.89
2022-11-16T11:34:43.181Z,17.84
2022-11-16T11:37:18.487Z,17.82
2022-11-16T11:42:41.456Z,18.06
2022-11-16T11:45:16.270Z,18.03
2022-11-16T11:48:03.080Z,17.97
2022-11-16T11:50:37.506Z,17.78
2022-11-16T11:53:16.455Z,17.78
2022-11-16T11:55:44.375Z,17.76
2022-11-16T11:58:18.626Z,17.73
2022-11-16T12:04:28.802Z,17.66
2022-11-16T12:07:02.329Z,17.59
2022-11-16T12:09:40.898Z,17.43
2022-11-16T12:12:34.737Z,17.56
2022-11-16T12:15:27.211Z,17.23
2022-11-16T12:18:25.984Z,17.41
2022-11-16T12:21:13.350Z,17.56
2022-11-16T12:24:19.517Z,17.55
2022-11-16T12:27:14.127Z,17.62
2022-11-16T12:30:00.719Z,17.37
2022-11-16T12:32:28.397Z,17.38
2022-11-16T12:35:17.951Z,17.56
2022-11-16T12:37:56.697Z,17.44
2022-11-16T12:40:43.021Z,17.49
2022-11-16T12:43:33.412Z,17.44
2022-11-16T12:46:04.675Z,17.55
2022-11-16T12:48:35.242Z,17.70
2022-11-16T12:51:12.099Z,17.73
2022-11-16T12:54:01.542Z,17.95
2022-11-16T12:56:38.567Z,18.05
2022-11-16T12:59:21.480Z,18.01
2022-11-16T13:02:12.106Z,18.01
2022-11-16T13:04:52.872Z,18.16
2022-11-16T13:07:33.202Z,18.21
2022-11-16T13:10:14.080Z,18.14
2022-11-16T13:12:45.664Z,18.26
2022-11-16T13:15:20.433Z,18.00
2022-11-16T13:17:57.239Z,17.88
2022-11-16T13:20:46.289Z,17.80
2022-11-16T13:23:32.937Z,17.59
2022-11-16T13:26:10.626Z,17.55
2022-11-16T13:29:20.854Z,17.48
2022-11-16T13:32:19.642Z,17.39
2022-11-16T13:34:48.295Z,17.32
2022-11-16T13:37:34.641Z,17.39
2022-11-16T13:40:01.948Z,17.31
2022-11-16T13:42:57.920Z,17.15
2022-11-16T13:45:29.723Z,17.08
2022-11-16T13:47:59.036Z,17.02
2022-11-16T13:50:56.586Z,17.01
2022-11-16T13:56:29.240Z,16.68
2022-11-16T13:58:58.502Z,16.55
2022-11-16T14:01:46.077Z,16.56
2022-11-16T14:05:02.100Z,16.54
2022-11-16T14:07:35.671Z,16.39
2022-11-16T14:10:05.894Z,16.25
2022-11-16T14:12:54.542Z,16.14
2022-11-16T14:15:34.034Z,16.13
2022-11-16T14:18:22.879Z,16.10
2022-11-16T14:20:57.233Z,16.08
2022-11-16T14:23:32.245Z,15.95
2022-11-16T14:26:13.989Z,15.94
2022-11-16T14:29:07.230Z,15.97
2022-11-16T14:31:48.880Z,15.89
2022-11-16T14:34:24.779Z,15.87
2022-11-16T14:36:53.464Z,15.86
2022-11-16T14:39:31.918Z,15.81
2022-11-16T14:42:08.494Z,15.85
2022-11-16T14:44:39.390Z,15.86
2022-11-16T14:47:20.982Z,15.75
2022-11-16T14:49:48.833Z,15.67
2022-11-16T14:52:24.362Z,15.58
2022-11-16T14:54:57.179Z,15.53
2022-11-16T14:57:24.897Z,15.44
2022-11-16T15:00:12.881Z,15.47
2022-11-16T15:02:41.528Z,15.36
2022-11-16T15:05:19.835Z,15.29
2022-11-16T15:07:51.345Z,15.28
2022-11-16T15:10:26.279Z,15.18
2022-11-16T15:12:55.488Z,15.20
2022-11-16T15:15:26.760Z,15.13
2022-11-16T15:18:00.493Z,15.03
2022-11-16T15:20:35.197Z,14.99
2022-11-16T15:23:05.737Z,15.01
2022-11-16T15:25:57.376Z,14.96
2022-11-16T15:28:27.894Z,14.87
2022-11-16T15:30:59.028Z,14.86
2022-11-16T15:33:31.007Z,14.74
2022-11-16T15:35:58.755Z,14.74
2022-11-16T15:38:33.790Z,14.73
2022-11-16T15:41:03.864Z,14.78
2022-11-16T15:43:38.239Z,14.75
2022-11-16T15:46:14.166Z,14.68
2022-11-16T15:48:42.987Z,14.74
2022-11-16T15:51:23.230Z,14.73
2022-11-16T15:53:55.376Z,14.65
2022-11-16T15:56:25.495Z,14.64
2022-11-16T15:58:54.681Z,14.61
2022-11-16T16:01:23.234Z,14.55
2022-11-16T16:03:59.192Z,14.46
2022-11-16T16:06:57.057Z,14.39
2022-11-16T16:09:34.454Z,14.40
2022-11-16T16:12:18.898Z,14.31
2022-11-16T16:14:51.237Z,14.21
2022-11-16T16:17:32.078Z,14.17
2022-11-16T16:20:06.586Z,14.07
2022-11-16T16:22:37.522Z,14.18
2022-11-16T16:25:07.216Z,14.10
2022-11-16T16:27:40.095Z,14.05
2022-11-16T16:30:08.789Z,13.95
2022-11-16T16:32:37.945Z,14.00
2022-11-16T16:35:07.921Z,13.94
2022-11-16T16:37:38.682Z,13.82
2022-11-16T16:40:07.502Z,13.80
2022-11-16T16:42:37.248Z,13.66
2022-11-16T16:45:05.475Z,13.70
2022-11-16T16:47:33.282Z,13.67
2022-11-16T16:50:00.968Z,13.51
2022-11-16T16:52:28.267Z,13.52
2022-11-16T16:54:55.982Z,13.52
2022-11-16T16:57:23.247Z,13.42
2022-11-16T16:59:50.846Z,13.52
2022-11-16T17:02:19.872Z,13.43
2022-11-16T17:04:48.591Z,13.47
2022-11-16T17:07:17.252Z,13.34
2022-11-16T17:09:45.027Z,13.35
2022-11-16T17:12:12.359Z,13.27
2022-11-16T17:14:39.952Z,13.20
2022-11-16T17:17:07.275Z,13.32
2022-11-16T17:19:34.914Z,13.28
2022-11-16T17:22:02.199Z,13.28
2022-11-16T17:24:30.129Z,13.25
2022-11-16T17:26:57.501Z,13.06
2022-11-16T17:29:29.330Z,13.06
2022-11-16T17:31:56.611Z,13.08
2022-11-16T17:34:24.351Z,12.97
2022-11-16T17:36:51.829Z,12.86
2022-11-16T17:39:23.357Z,12.94
2022-11-16T17:41:51.156Z,12.91
2022-11-16T17:44:22.082Z,12.95
2022-11-16T17:46:50.314Z,12.87
2022-11-16T17:49:18.197Z,12.89
2022-11-16T17:51:45.522Z,12.82
2022-11-16T17:54:13.140Z,12.92
2022-11-16T17:56:41.334Z,12.90
2022-11-16T17:59:11.062Z,12.93
2022-11-16T18:01:40.147Z,12.86
2022-11-16T18:04:07.898Z,12.71
2022-11-16T18:06:35.742Z,12.74
2022-11-16T18:09:05.109Z,12.75
2022-11-16T18:11:33.103Z,12.82
2022-11-16T18:14:02.103Z,12.71
2022-11-16T18:16:32.698Z,12.71
2022-11-16T18:19:02.645Z,12.71
2022-11-16T18:21:30.526Z,12.65
2022-11-16T18:24:00.663Z,12.59
2022-11-16T18:26:28.114Z,12.61
2022-11-16T18:28:57.110Z,12.49
2022-11-16T18:31:25.304Z,12.47
2022-11-16T18:33:54.106Z,12.53
2022-11-16T18:36:22.987Z,12.57
2022-11-16T18:38:51.032Z,12.48
2022-11-16T18:41:23.073Z,12.50
2022-11-16T18:43:53.965Z,12.49
2022-11-16T18:46:32.276Z,12.40
2022-11-16T18:49:00.476Z,12.44
2022-11-16T18:51:28.998Z,12.57
2022-11-16T18:53:58.299Z,12.49
2022-11-16T18:56:25.629Z,12.57
2022-11-16T18:58:54.515Z,12.60
2022-11-16T19:01:25.155Z,12.62
2022-11-16T19:03:56.178Z,12.61
2022-11-16T19:06:24.340Z,12.59
2022-11-16T19:08:59.352Z,12.63
2022-11-16T19:11:28.661Z,12.58
2022-11-16T19:14:00.708Z,12.46
2022-11-16T19:16:28.450Z,12.52
2022-11-16T19:18:57.659Z,12.56
2022-11-16T19:21:47.835Z,12.57
2022-11-16T19:24:32.784Z,12.61
2022-11-16T19:27:00.955Z,12.52
2022-11-16T19:29:29.811Z,12.59
2022-11-16T19:32:02.095Z,12.58
2022-11-16T19:34:33.425Z,12.60
2022-11-16T19:37:02.504Z,12.63
2022-11-16T19:39:34.428Z,12.60
2022-11-16T19:42:04.339Z,12.58
2022-11-16T19:44:35.366Z,12.64
2022-11-16T19:47:07.369Z,12.70
2022-11-16T19:49:36.318Z,12.55
2022-11-16T19:52:04.068Z,12.63
2022-11-16T19:54:31.748Z,12.70
2022-11-16T19:57:08.611Z,12.71
2022-11-16T19:59:38.352Z,12.71
2022-11-16T20:02:10.268Z,12.69
2022-11-16T20:04:45.561Z,12.86
2022-11-16T20:07:18.568Z,12.90
2022-11-16T20:09:57.626Z,12.94
2022-11-16T20:12:35.893Z,12.98
2022-11-16T20:15:11.593Z,13.07
2022-11-16T20:17:44.563Z,13.03
2022-11-16T20:20:17.636Z,13.10
2022-11-16T20:22:55.173Z,13.09
2022-11-16T20:26:08.344Z,13.12
2022-11-16T20:28:39.525Z,13.18
2022-11-16T20:31:17.864Z,13.16
2022-11-16T20:34:03.388Z,13.17
2022-11-16T20:36:35.462Z,13.21
2022-11-16T20:39:03.354Z,13.16
2022-11-16T20:41:33.922Z,13.20
2022-11-16T20:44:03.442Z,13.20
2022-11-16T20:46:33.967Z,13.24
2022-11-16T20:49:05.113Z,13.36
2022-11-16T20:51:33.847Z,13.43
2022-11-16T20:57:16.907Z,13.43
2022-11-16T20:59:44.756Z,13.39
2022-11-16T21:02:15.187Z,13.30
2022-11-16T21:04:44.992Z,13.15
2022-11-16T21:07:16.905Z,13.32
2022-11-16T21:10:04.406Z,13.26
2022-11-16T21:12:50.921Z,13.26
2022-11-16T21:15:19.494Z,13.05
2022-11-16T21:17:47.799Z,13.16
2022-11-16T21:20:27.369Z,13.32
2022-11-16T21:22:57.220Z,13.20
2022-11-16T21:25:29.125Z,13.12
2022-11-16T21:27:59.564Z,13.20
2022-11-16T21:30:32.544Z,13.25
2022-11-16T21:33:00.097Z,13.20
2022-11-16T21:35:29.061Z,13.18
2022-11-16T21:37:59.924Z,13.17
2022-11-16T21:40:27.779Z,13.11
2022-11-16T21:42:57.314Z,13.13
2022-11-16T21:45:25.288Z,13.09
2022-11-16T21:47:53.973Z,13.07
2022-11-16T21:50:36.798Z,13.01
2022-11-16T21:53:07.913Z,13.03
2022-11-16T21:55:39.071Z,13.04
2022-11-16T21:58:08.706Z,13.03
2022-11-16T22:00:36.674Z,12.93
2022-11-16T22:03:04.752Z,12.97
2022-11-16T22:05:51.823Z,12.95
2022-11-16T22:08:19.072Z,12.90
2022-11-16T22:10:54.351Z,12.91
2022-11-16T22:13:23.150Z,12.98
2022-11-16T22:15:51.198Z,12.77
2022-11-16T22:18:18.607Z,12.92
2022-11-16T22:20:50.029Z,12.82
2022-11-16T22:23:22.694Z,12.87
2022-11-16T22:26:11.321Z,12.87
2022-11-16T22:28:39.996Z,12.69
2022-11-16T22:31:12.229Z,12.79
2022-11-16T22:33:41.075Z,12.86
2022-11-16T22:36:11.314Z,12.82
2022-11-16T22:38:38.740Z,12.81
2022-11-16T22:41:08.547Z,12.85
2022-11-16T22:43:37.729Z,12.84
2022-11-16T22:46:07.005Z,12.78
2022-11-16T22:48:36.751Z,12.79
2022-11-16T22:51:07.340Z,12.84
2022-11-16T22:53:39.928Z,12.78
2022-11-16T22:56:09.690Z,12.82
2022-11-16T22:58:39.393Z,12.83
2022-11-16T23:01:08.283Z,12.80
2022-11-16T23:03:37.552Z,12.73
2022-11-16T23:06:07.355Z,12.72
2022-11-16T23:08:35.754Z,12.74
2022-11-16T23:11:31.731Z,12.74
2022-11-16T23:14:17.843Z,12.58
2022-11-16T23:16:50.479Z,12.45
2022-11-16T23:19:38.119Z,12.56
2022-11-16T23:22:26.927Z,12.56
2022-11-16T23:25:14.974Z,12.53
2022-11-16T23:27:56.931Z,12.59
2022-11-16T23:30:25.024Z,12.55
2022-11-16T23:32:53.819Z,12.51
2022-11-16T23:35:21.706Z,12.52
2022-11-16T23:37:57.189Z,12.46
2022-11-16T23:40:27.772Z,12.35
2022-11-16T23:43:16.395Z,12.29
2022-11-16T23:45:44.621Z,12.21
2022-11-16T23:48:14.545Z,12.19
2022-11-16T23:50:45.807Z,12.15
2022-11-16T23:53:18.009Z,12.01
2022-11-16T23:55:49.145Z,12.04
2022-11-16T23:58:16.966Z,11.97
